Time;durP1;ratioP1;P1;durP2;ratioP2;P2;SDS_P1;SDS_P2;PMS_P1;PMS_P2;Temp;Humidity;BMP_temperature;BMP_pressure;BME280_temperature;BME280_humidity;BME280_pressure;Samples;Min_cycle;Max_cycle;Signal;HPM_P1;HPM_P2
2023/07/24 00:01:25;;;;;;;5.93;3.80;;;;;;;;;;5117216;28;20553;-85
2023/07/24 00:03:54;;;;;;;4.50;3.63;;;;;;;;;;5117081;28;20043;-83
2023/07/24 00:06:21;;;;;;;4.90;3.35;;;;;;;;;;5117520;28;20100;-82
2023/07/24 00:08:49;;;;;;;4.30;3.53;;;;;;;;;;5120064;28;20051;-84
2023/07/24 00:11:16;;;;;;;4.95;3.40;;;;;;;;;;5118459;28;20088;-84
2023/07/24 00:13:43;;;;;;;3.92;3.63;;;;;;;;;;5118498;28;20121;-85
2023/07/24 00:16:10;;;;;;;3.28;2.95;;;;;;;;;;5118335;28;20047;-84
2023/07/24 00:18:37;;;;;;;2.95;2.75;;;;;;;;;;5117885;28;20116;-84
2023/07/24 00:21:05;;;;;;;5.72;3.20;;;;;;;;;;5117103;28;20422;-82
2023/07/24 00:23:32;;;;;;;3.13;2.92;;;;;;;;;;5116769;28;20093;-84
2023/07/24 00:25:59;;;;;;;3.72;3.10;;;;;;;;;;5117780;28;20063;-85
2023/07/24 00:28:26;;;;;;;3.30;3.10;;;;;;;;;;5116425;28;20104;-82
2023/07/24 00:30:55;;;;;;;5.10;3.25;;;;;;;;;;5114035;28;20477;-82
2023/07/24 00:33:23;;;;;;;3.55;3.25;;;;;;;;;;5113163;28;20043;-83
2023/07/24 00:35:50;;;;;;;3.08;2.88;;;;;;;;;;5112130;28;20560;-82
2023/07/24 00:38:17;;;;;;;4.95;3.20;;;;;;;;;;5112630;28;20044;-83
2023/07/24 00:40:44;;;;;;;3.03;2.83;;;;;;;;;;5113171;28;20487;-83
2023/07/24 00:43:11;;;;;;;3.75;3.22;;;;;;;;;;5112903;28;20545;-82
2023/07/24 00:45:39;;;;;;;3.40;2.70;;;;;;;;;;5114216;28;20048;-83
2023/07/24 00:48:06;;;;;;;3.22;2.85;;;;;;;;;;5113251;28;20048;-82
2023/07/24 00:50:33;;;;;;;3.65;3.30;;;;;;;;;;5112667;28;20500;-82
2023/07/24 00:53:00;;;;;;;7.30;3.30;;;;;;;;;;5113368;28;20097;-83
2023/07/24 00:55:28;;;;;;;4.30;2.88;;;;;;;;;;5112088;28;20040;-83
2023/07/24 00:57:55;;;;;;;3.40;3.10;;;;;;;;;;5113373;28;20465;-83
2023/07/24 01:00:23;;;;;;;4.50;3.28;;;;;;;;;;5113458;28;20040;-83
2023/07/24 01:02:50;;;;;;;3.40;3.20;;;;;;;;;;5111684;28;20432;-82
2023/07/24 01:05:18;;;;;;;5.90;2.92;;;;;;;;;;5113031;27;20048;-83
2023/07/24 01:07:45;;;;;;;9.63;3.25;;;;;;;;;;5113216;28;20487;-82
2023/07/24 01:10:12;;;;;;;5.43;3.70;;;;;;;;;;5111759;28;20491;-82
2023/07/24 01:12:50;;;;;;;12.20;3.40;;;;;;;;;;5111811;28;20090;-83
2023/07/24 01:15:23;;;;;;;11.77;4.13;;;;;;;;;;5116114;28;20040;-82
2023/07/24 01:17:52;;;;;;;7.63;3.65;;;;;;;;;;5115754;28;20047;-82
2023/07/24 01:20:20;;;;;;;8.15;3.38;;;;;;;;;;5116468;28;20507;-84
2023/07/24 01:22:47;;;;;;;3.78;3.00;;;;;;;;;;5116504;28;20480;-84
2023/07/24 01:25:14;;;;;;;3.70;3.03;;;;;;;;;;5117211;28;20054;-83
2023/07/24 01:27:46;;;;;;;3.42;3.22;;;;;;;;;;5115947;28;20051;-82
2023/07/24 01:30:14;;;;;;;4.63;3.28;;;;;;;;;;5115802;28;20044;-85
2023/07/24 01:32:41;;;;;;;8.93;3.38;;;;;;;;;;5117106;28;20400;-83
2023/07/24 01:35:09;;;;;;;11.80;3.53;;;;;;;;;;5117031;28;20131;-82
2023/07/24 01:37:39;;;;;;;18.40;3.95;;;;;;;;;;5115688;28;20499;-83
2023/07/24 01:40:10;;;;;;;4.32;3.20;;;;;;;;;;5115855;28;20048;-82
2023/07/24 01:42:37;;;;;;;10.32;3.55;;;;;;;;;;5115725;28;20051;-81
2023/07/24 01:45:05;;;;;;;7.57;3.42;;;;;;;;;;5117371;28;20496;-84
2023/07/24 01:47:32;;;;;;;6.40;3.90;;;;;;;;;;5121313;28;20066;-84
2023/07/24 01:50:00;;;;;;;6.65;3.38;;;;;;;;;;5120524;28;20051;-84
2023/07/24 01:52:27;;;;;;;7.82;3.50;;;;;;;;;;5119961;28;20051;-84
2023/07/24 01:54:54;;;;;;;6.32;3.20;;;;;;;;;;5119739;28;20047;-84
2023/07/24 01:57:21;;;;;;;3.38;3.08;;;;;;;;;;5119695;28;20043;-84
2023/07/24 01:59:49;;;;;;;3.25;3.05;;;;;;;;;;5120869;27;20043;-83
2023/07/24 02:02:16;;;;;;;4.53;3.30;;;;;;;;;;5119090;28;20052;-85
2023/07/24 02:04:43;;;;;;;3.75;3.45;;;;;;;;;;5118290;28;20104;-84
2023/07/24 02:07:10;;;;;;;3.70;3.05;;;;;;;;;;5115050;28;20449;-82
2023/07/24 02:09:38;;;;;;;4.25;3.20;;;;;;;;;;5115668;27;20084;-83
2023/07/24 02:12:05;;;;;;;3.28;3.08;;;;;;;;;;5115317;28;20052;-82
2023/07/24 02:14:32;;;;;;;4.43;3.00;;;;;;;;;;5116580;28;20040;-82
2023/07/24 02:17:00;;;;;;;5.97;3.28;;;;;;;;;;5114744;28;20051;-83
2023/07/24 02:19:27;;;;;;;5.25;3.03;;;;;;;;;;5114874;28;20048;-82
2023/07/24 02:21:54;;;;;;;4.07;3.40;;;;;;;;;;5115492;28;20055;-82
2023/07/24 02:24:21;;;;;;;3.97;3.35;;;;;;;;;;5115767;28;20096;-82
2023/07/24 02:26:49;;;;;;;3.70;3.30;;;;;;;;;;5113827;28;20063;-81
2023/07/24 02:29:16;;;;;;;4.70;3.22;;;;;;;;;;5115014;28;20044;-81
2023/07/24 02:31:43;;;;;;;3.70;3.28;;;;;;;;;;5115877;28;20048;-80
2023/07/24 02:34:10;;;;;;;3.15;2.85;;;;;;;;;;5114705;28;20047;-79
2023/07/24 02:36:38;;;;;;;4.93;3.10;;;;;;;;;;5114338;28;20064;-79
2023/07/24 02:39:06;;;;;;;3.92;3.22;;;;;;;;;;5114776;28;20052;-80
2023/07/24 02:41:33;;;;;;;3.42;3.13;;;;;;;;;;5114937;28;20070;-81
2023/07/24 02:44:00;;;;;;;3.67;3.30;;;;;;;;;;5114776;28;20044;-81
2023/07/24 02:46:28;;;;;;;3.55;3.25;;;;;;;;;;5115462;28;20100;-81
2023/07/24 02:48:56;;;;;;;5.35;3.42;;;;;;;;;;5114428;28;20047;-83
2023/07/24 02:51:23;;;;;;;3.85;3.15;;;;;;;;;;5115659;27;20415;-81
2023/07/24 02:53:50;;;;;;;4.22;3.65;;;;;;;;;;5115536;28;20040;-81
2023/07/24 02:56:20;;;;;;;3.80;3.50;;;;;;;;;;5115648;28;20047;-81
2023/07/24 02:58:47;;;;;;;5.43;3.63;;;;;;;;;;5114297;28;20495;-80
2023/07/24 03:01:15;;;;;;;5.30;3.80;;;;;;;;;;5114428;28;20051;-81
2023/07/24 03:03:42;;;;;;;4.68;3.60;;;;;;;;;;5113843;28;20057;-79
2023/07/24 03:06:09;;;;;;;4.10;3.80;;;;;;;;;;5115398;28;20054;-81
2023/07/24 03:08:37;;;;;;;4.75;3.85;;;;;;;;;;5115192;28;20073;-81
2023/07/24 03:11:08;;;;;;;8.07;4.10;;;;;;;;;;5115406;28;20051;-80
2023/07/24 03:13:35;;;;;;;4.55;3.78;;;;;;;;;;5114225;28;20135;-82
2023/07/24 03:16:02;;;;;;;6.10;3.85;;;;;;;;;;5113685;28;20044;-81
2023/07/24 03:18:30;;;;;;;4.10;3.65;;;;;;;;;;5114910;28;20048;-80
2023/07/24 03:20:58;;;;;;;4.35;3.95;;;;;;;;;;5115506;28;20048;-81
2023/07/24 03:23:26;;;;;;;3.70;3.40;;;;;;;;;;5118566;28;20464;-82
2023/07/24 03:25:53;;;;;;;6.65;3.95;;;;;;;;;;5118798;28;20059;-83
2023/07/24 03:28:21;;;;;;;4.10;3.55;;;;;;;;;;5117182;28;20147;-82
2023/07/24 03:30:48;;;;;;;8.80;4.80;;;;;;;;;;5118531;28;20078;-81
2023/07/24 03:33:16;;;;;;;7.70;4.47;;;;;;;;;;5116968;28;20055;-81
2023/07/24 03:35:44;;;;;;;4.18;3.88;;;;;;;;;;5116189;28;20054;-82
2023/07/24 03:38:11;;;;;;;4.28;3.70;;;;;;;;;;5117285;28;20047;-82
2023/07/24 03:40:38;;;;;;;3.85;3.50;;;;;;;;;;5117264;28;20069;-82
2023/07/24 03:43:05;;;;;;;4.60;3.70;;;;;;;;;;5116760;28;20047;-79
2023/07/24 03:45:33;;;;;;;5.72;3.90;;;;;;;;;;5112860;28;20074;-81
2023/07/24 03:48:00;;;;;;;5.75;4.00;;;;;;;;;;5113218;28;20044;-81
2023/07/24 03:50:29;;;;;;;5.05;3.75;;;;;;;;;;5113023;28;20499;-80
2023/07/24 03:52:56;;;;;;;7.28;3.88;;;;;;;;;;5113358;28;20419;-80
2023/07/24 03:55:24;;;;;;;4.45;3.90;;;;;;;;;;5114341;28;20060;-81
2023/07/24 03:57:51;;;;;;;5.93;5.43;;;;;;;;;;5113358;28;20043;-81
2023/07/24 04:00:18;;;;;;;4.53;4.10;;;;;;;;;;5119283;28;20048;-83
2023/07/24 04:02:47;;;;;;;3.97;3.63;;;;;;;;;;5120650;28;20051;-81
2023/07/24 04:05:14;;;;;;;4.80;4.25;;;;;;;;;;5119016;28;20078;-83
2023/07/24 04:07:41;;;;;;;5.93;4.43;;;;;;;;;;5118629;28;20088;-81
2023/07/24 04:10:09;;;;;;;7.63;4.45;;;;;;;;;;5116235;28;20113;-82
2023/07/24 04:12:36;;;;;;;4.43;4.03;;;;;;;;;;5116333;28;20097;-82
2023/07/24 04:15:03;;;;;;;5.28;4.07;;;;;;;;;;5116708;28;20043;-82
2023/07/24 04:17:32;;;;;;;4.30;3.90;;;;;;;;;;5117607;28;20048;-83
2023/07/24 04:20:00;;;;;;;4.35;3.95;;;;;;;;;;5117237;28;20047;-81
2023/07/24 04:22:27;;;;;;;5.35;4.43;;;;;;;;;;5116507;28;20384;-83
2023/07/24 04:24:54;;;;;;;4.80;4.25;;;;;;;;;;5118300;28;20482;-81
2023/07/24 04:27:21;;;;;;;5.88;4.40;;;;;;;;;;5116336;28;20531;-81
2023/07/24 04:29:48;;;;;;;6.78;4.20;;;;;;;;;;5116817;28;20124;-81
2023/07/24 04:32:16;;;;;;;5.30;4.22;;;;;;;;;;5115776;28;20039;-81
2023/07/24 04:34:43;;;;;;;4.68;3.83;;;;;;;;;;5115814;28;20043;-82
2023/07/24 04:37:10;;;;;;;5.07;4.32;;;;;;;;;;5116139;28;20411;-82
2023/07/24 04:39:40;;;;;;;7.07;4.30;;;;;;;;;;5115797;28;20100;-80
2023/07/24 04:42:08;;;;;;;5.35;4.45;;;;;;;;;;5117350;28;20047;-81
2023/07/24 04:44:35;;;;;;;6.00;4.15;;;;;;;;;;5115618;28;20047;-82
2023/07/24 04:47:02;;;;;;;4.90;4.50;;;;;;;;;;5115850;28;20487;-80
2023/07/24 04:49:30;;;;;;;4.85;4.30;;;;;;;;;;5115019;28;20059;-80
2023/07/24 04:51:57;;;;;;;5.75;4.50;;;;;;;;;;5114401;28;20047;-80
2023/07/24 04:54:25;;;;;;;4.35;3.90;;;;;;;;;;5115479;28;20048;-82
2023/07/24 04:56:52;;;;;;;5.05;4.45;;;;;;;;;;5115336;28;20048;-82
2023/07/24 04:59:19;;;;;;;4.90;4.25;;;;;;;;;;5116196;28;20568;-83
2023/07/24 05:01:47;;;;;;;5.93;4.53;;;;;;;;;;5118934;28;20043;-82
2023/07/24 05:04:14;;;;;;;5.65;4.70;;;;;;;;;;5116930;28;20400;-82
2023/07/24 05:06:41;;;;;;;5.72;4.90;;;;;;;;;;5117160;28;20059;-81
2023/07/24 05:09:09;;;;;;;5.00;4.38;;;;;;;;;;5116420;28;20048;-82
2023/07/24 05:11:36;;;;;;;5.10;4.60;;;;;;;;;;5116503;28;20439;-84
2023/07/24 05:14:03;;;;;;;5.28;4.43;;;;;;;;;;5115123;28;20044;-81
2023/07/24 05:16:31;;;;;;;5.72;4.50;;;;;;;;;;5115146;28;20040;-82
2023/07/24 05:18:59;;;;;;;6.50;4.88;;;;;;;;;;5116826;28;20048;-80
2023/07/24 05:21:26;;;;;;;4.80;4.40;;;;;;;;;;5115004;28;20069;-80
2023/07/24 05:23:53;;;;;;;5.22;4.72;;;;;;;;;;5113472;28;20507;-81
2023/07/24 05:26:22;;;;;;;6.35;4.75;;;;;;;;;;5113729;28;20552;-80
2023/07/24 05:28:49;;;;;;;4.78;4.38;;;;;;;;;;5113188;28;20051;-80
2023/07/24 05:31:16;;;;;;;5.72;4.90;;;;;;;;;;5113622;28;20408;-80
2023/07/24 05:33:43;;;;;;;5.53;4.57;;;;;;;;;;5112191;28;20511;-80
2023/07/24 05:36:11;;;;;;;4.93;4.35;;;;;;;;;;5113786;28;20513;-80
2023/07/24 05:38:38;;;;;;;5.88;4.28;;;;;;;;;;5112419;28;20051;-81
2023/07/24 05:41:05;;;;;;;8.00;4.95;;;;;;;;;;5112177;28;20051;-80
2023/07/24 05:43:32;;;;;;;4.88;3.95;;;;;;;;;;5113557;28;20051;-80
2023/07/24 05:46:00;;;;;;;5.15;4.43;;;;;;;;;;5112998;28;20059;-81
2023/07/24 05:48:27;;;;;;;7.05;4.60;;;;;;;;;;5111553;28;20130;-80
2023/07/24 05:50:54;;;;;;;6.65;4.35;;;;;;;;;;5112853;28;20093;-80
2023/07/24 05:53:21;;;;;;;6.03;4.78;;;;;;;;;;5114067;28;20039;-82
2023/07/24 05:55:56;;;;;;;4.78;4.38;;;;;;;;;;5113244;28;20510;-81
2023/07/24 05:58:23;;;;;;;5.53;4.43;;;;;;;;;;5112510;28;20047;-80
2023/07/24 06:00:50;;;;;;;4.88;4.22;;;;;;;;;;5114875;28;20104;-79
2023/07/24 06:03:18;;;;;;;5.07;4.57;;;;;;;;;;5117785;28;20047;-80
2023/07/24 06:05:45;;;;;;;7.40;4.43;;;;;;;;;;5116367;28;20491;-81
2023/07/24 06:08:12;;;;;;;4.80;4.30;;;;;;;;;;5117580;27;20047;-82
2023/07/24 06:10:39;;;;;;;5.15;4.05;;;;;;;;;;5116057;28;20115;-82
2023/07/24 06:13:07;;;;;;;7.88;5.20;;;;;;;;;;5115709;28;20089;-80
2023/07/24 06:15:34;;;;;;;6.07;4.75;;;;;;;;;;5115634;28;20105;-81
2023/07/24 06:18:01;;;;;;;6.65;4.93;;;;;;;;;;5117439;28;20487;-82
2023/07/24 06:20:28;;;;;;;6.85;4.80;;;;;;;;;;5115614;28;20062;-81
2023/07/24 06:22:56;;;;;;;7.75;4.68;;;;;;;;;;5116088;28;20179;-80
2023/07/24 06:25:23;;;;;;;9.73;4.75;;;;;;;;;;5115698;28;20670;-81
2023/07/24 06:27:50;;;;;;;6.60;5.15;;;;;;;;;;5116139;27;20135;-81
2023/07/24 06:30:17;;;;;;;7.38;4.82;;;;;;;;;;5114974;28;20285;-79
2023/07/24 06:32:45;;;;;;;5.63;4.65;;;;;;;;;;5114927;28;20179;-80
2023/07/24 06:35:12;;;;;;;5.28;4.78;;;;;;;;;;5115106;28;20047;-79
2023/07/24 06:37:39;;;;;;;5.40;4.53;;;;;;;;;;5116730;28;20093;-83
2023/07/24 06:40:07;;;;;;;5.35;4.82;;;;;;;;;;5120016;28;20055;-81
2023/07/24 06:42:35;;;;;;;5.85;5.25;;;;;;;;;;5119271;28;20052;-81
2023/07/24 06:45:02;;;;;;;5.32;4.82;;;;;;;;;;5118529;28;20487;-81
2023/07/24 06:47:32;;;;;;;5.90;4.70;;;;;;;;;;5119581;28;20080;-82
2023/07/24 06:50:00;;;;;;;5.18;4.72;;;;;;;;;;5118821;28;20054;-81
2023/07/24 06:52:27;;;;;;;8.32;4.65;;;;;;;;;;5118822;28;20051;-82
2023/07/24 06:54:54;;;;;;;5.75;4.60;;;;;;;;;;5116940;28;20043;-79
2023/07/24 06:57:21;;;;;;;6.07;4.72;;;;;;;;;;5119311;28;20476;-80
2023/07/24 06:59:48;;;;;;;4.85;4.32;;;;;;;;;;5121285;28;20050;-80
2023/07/24 07:02:16;;;;;;;6.32;4.60;;;;;;;;;;5121012;28;20051;-80
2023/07/24 07:04:43;;;;;;;6.55;4.80;;;;;;;;;;5119585;28;20047;-79
2023/07/24 07:07:10;;;;;;;6.13;5.15;;;;;;;;;;5116184;28;20087;-80
2023/07/24 07:09:38;;;;;;;7.25;5.32;;;;;;;;;;5117998;28;20056;-80
2023/07/24 07:12:05;;;;;;;5.35;4.85;;;;;;;;;;5115728;28;20051;-80
2023/07/24 07:14:32;;;;;;;4.97;4.47;;;;;;;;;;5114998;28;20048;-79
2023/07/24 07:16:59;;;;;;;5.40;4.90;;;;;;;;;;5114480;28;20043;-81
2023/07/24 07:19:28;;;;;;;5.75;4.95;;;;;;;;;;5115460;28;20089;-81
2023/07/24 07:21:55;;;;;;;6.55;5.88;;;;;;;;;;5115481;28;20444;-80
2023/07/24 07:24:22;;;;;;;5.22;4.72;;;;;;;;;;5115422;28;20055;-81
2023/07/24 07:26:49;;;;;;;8.63;7.32;;;;;;;;;;5114490;28;20507;-80
2023/07/24 07:29:17;;;;;;;6.60;6.00;;;;;;;;;;5115400;28;20051;-79
2023/07/24 07:31:44;;;;;;;6.53;5.45;;;;;;;;;;5116453;28;20096;-80
2023/07/24 07:34:11;;;;;;;5.50;5.00;;;;;;;;;;5114103;28;20567;-80
2023/07/24 07:36:39;;;;;;;6.32;5.63;;;;;;;;;;5114230;28;20051;-78
2023/07/24 07:39:06;;;;;;;6.68;5.20;;;;;;;;;;5115415;28;20544;-78
2023/07/24 07:41:34;;;;;;;6.07;5.18;;;;;;;;;;5116102;28;20134;-80
2023/07/24 07:44:01;;;;;;;6.88;5.03;;;;;;;;;;5115363;27;20511;-80
2023/07/24 07:46:28;;;;;;;8.80;5.00;;;;;;;;;;5115214;28;20063;-79
2023/07/24 07:48:56;;;;;;;7.70;5.43;;;;;;;;;;5114995;28;20096;-80
2023/07/24 07:51:25;;;;;;;10.75;9.65;;;;;;;;;;5114171;28;20097;-81
2023/07/24 07:53:52;;;;;;;14.45;12.63;;;;;;;;;;5113680;28;20054;-80
2023/07/24 07:56:20;;;;;;;6.45;5.70;;;;;;;;;;5113835;28;20085;-79
2023/07/24 07:58:47;;;;;;;29.30;21.02;;;;;;;;;;5113272;28;20109;-79
2023/07/24 08:01:14;;;;;;;19.35;15.85;;;;;;;;;;5113526;28;20466;-80
2023/07/24 08:03:41;;;;;;;13.20;10.35;;;;;;;;;;5112928;28;20751;-79
2023/07/24 08:06:09;;;;;;;6.00;5.40;;;;;;;;;;5113726;28;20124;-79
2023/07/24 08:08:36;;;;;;;13.40;5.57;;;;;;;;;;5113439;28;20043;-79
2023/07/24 08:11:06;;;;;;;4.88;4.38;;;;;;;;;;5113038;28;20096;-82
2023/07/24 08:13:34;;;;;;;5.22;4.72;;;;;;;;;;5113377;28;20047;-79
2023/07/24 08:16:03;;;;;;;6.97;5.32;;;;;;;;;;5115337;28;20054;-84
2023/07/24 08:18:31;;;;;;;5.80;5.20;;;;;;;;;;5121620;28;20054;-82
2023/07/24 08:20:58;;;;;;;8.63;5.20;;;;;;;;;;5121550;28;20048;-83
2023/07/24 08:23:25;;;;;;;11.88;5.03;;;;;;;;;;5118001;28;20376;-83
2023/07/24 08:25:56;;;;;;;8.00;5.55;;;;;;;;;;5119176;28;20059;-85
2023/07/24 08:28:23;;;;;;;7.22;5.38;;;;;;;;;;5118483;28;20047;-82
2023/07/24 08:30:57;;;;;;;6.55;5.57;;;;;;;;;;5117402;28;20044;-81
2023/07/24 08:33:25;;;;;;;6.05;5.20;;;;;;;;;;5120018;27;20101;-83
2023/07/24 08:36:12;;;;;;;8.45;5.53;;;;;;;;;;5120459;28;20104;-83
2023/07/24 08:38:40;;;;;;;6.53;5.47;;;;;;;;;;5117446;28;20051;-83
2023/07/24 08:41:09;;;;;;;5.72;5.10;;;;;;;;;;5118434;28;20040;-83
2023/07/24 08:43:38;;;;;;;6.15;5.55;;;;;;;;;;5116315;28;20393;-82
2023/07/24 08:46:05;;;;;;;6.40;5.43;;;;;;;;;;5115697;28;20431;-82
2023/07/24 08:48:36;;;;;;;8.27;5.50;;;;;;;;;;5114649;28;20044;-82
2023/07/24 08:51:04;;;;;;;8.25;5.63;;;;;;;;;;5117476;28;20097;-83
2023/07/24 08:53:36;;;;;;;16.08;6.07;;;;;;;;;;5114286;28;20049;-82
2023/07/24 08:56:04;;;;;;;9.00;5.80;;;;;;;;;;5115584;28;20400;-82
2023/07/24 08:58:31;;;;;;;10.10;6.30;;;;;;;;;;5114083;28;20116;-80
2023/07/24 09:00:59;;;;;;;11.27;6.57;;;;;;;;;;5113976;28;20048;-83
2023/07/24 09:03:26;;;;;;;10.25;5.93;;;;;;;;;;5114898;28;20134;-82
2023/07/24 09:05:54;;;;;;;7.50;5.93;;;;;;;;;;5113845;28;20048;-81
2023/07/24 09:08:34;;;;;;;11.40;5.90;;;;;;;;;;5114622;28;20051;-81
2023/07/24 09:11:03;;;;;;;7.32;5.93;;;;;;;;;;5113819;28;20077;-80
2023/07/24 09:13:30;;;;;;;6.63;5.75;;;;;;;;;;5113249;28;20469;-82
2023/07/24 09:15:59;;;;;;;6.68;5.90;;;;;;;;;;5113353;28;20055;-81
2023/07/24 09:18:26;;;;;;;6.47;5.80;;;;;;;;;;5114477;28;20484;-81
2023/07/24 09:20:53;;;;;;;8.18;6.18;;;;;;;;;;5113642;28;20039;-82
2023/07/24 09:23:27;;;;;;;6.75;5.90;;;;;;;;;;5112883;28;20052;-81
2023/07/24 09:25:55;;;;;;;8.32;6.50;;;;;;;;;;5112283;28;20052;-80
2023/07/24 09:28:23;;;;;;;6.35;5.75;;;;;;;;;;5112640;28;20502;-81
2023/07/24 09:30:57;;;;;;;7.63;5.82;;;;;;;;;;5112449;28;20044;-81
2023/07/24 09:33:35;;;;;;;8.65;6.50;;;;;;;;;;5111720;28;20510;-83
2023/07/24 09:36:03;;;;;;;9.93;6.43;;;;;;;;;;5116849;28;20040;-79
2023/07/24 09:38:31;;;;;;;9.25;5.70;;;;;;;;;;5119963;28;20048;-81
2023/07/24 09:40:58;;;;;;;9.93;6.28;;;;;;;;;;5119943;28;20089;-79
2023/07/24 09:43:26;;;;;;;6.65;5.75;;;;;;;;;;5118135;28;20055;-80
2023/07/24 09:46:09;;;;;;;7.40;6.10;;;;;;;;;;5118447;28;20054;-80
2023/07/24 09:48:38;;;;;;;6.60;5.63;;;;;;;;;;5120720;27;20518;-82
2023/07/24 09:51:25;;;;;;;6.35;5.85;;;;;;;;;;5119295;28;20051;-82
2023/07/24 09:53:57;;;;;;;7.93;5.22;;;;;;;;;;5118300;28;20043;-82
2023/07/24 09:56:24;;;;;;;6.15;5.55;;;;;;;;;;5124400;28;20048;-82
2023/07/24 09:59:10;;;;;;;6.43;5.85;;;;;;;;;;5120716;28;20410;-82
2023/07/24 10:01:37;;;;;;;7.03;6.15;;;;;;;;;;5122160;28;20043;-82
2023/07/24 10:04:05;;;;;;;12.98;5.95;;;;;;;;;;5121589;28;20047;-82
2023/07/24 10:06:33;;;;;;;12.50;6.47;;;;;;;;;;5120578;28;20043;-83
2023/07/24 10:09:01;;;;;;;8.65;6.65;;;;;;;;;;5120493;28;20048;-82
2023/07/24 10:11:28;;;;;;;7.85;6.43;;;;;;;;;;5118752;28;20112;-81
2023/07/24 10:13:56;;;;;;;8.82;6.35;;;;;;;;;;5117553;28;20044;-82
2023/07/24 10:16:23;;;;;;;12.13;7.00;;;;;;;;;;5120580;28;20100;-84
2023/07/24 10:18:51;;;;;;;9.85;6.72;;;;;;;;;;5118438;28;20131;-81
2023/07/24 10:21:18;;;;;;;7.70;6.57;;;;;;;;;;5118555;28;20044;-81
2023/07/24 10:23:46;;;;;;;10.27;7.05;;;;;;;;;;5119772;27;20400;-81
2023/07/24 10:26:15;;;;;;;8.77;6.72;;;;;;;;;;5118274;28;20430;-82
2023/07/24 10:28:43;;;;;;;10.43;7.05;;;;;;;;;;5117875;28;20048;-80
2023/07/24 10:31:23;;;;;;;7.50;5.88;;;;;;;;;;5117921;28;20499;-81
2023/07/24 10:33:51;;;;;;;9.25;6.57;;;;;;;;;;5117785;28;20055;-80
2023/07/24 10:36:19;;;;;;;13.55;6.63;;;;;;;;;;5117024;28;20048;-81
2023/07/24 10:38:48;;;;;;;10.95;6.47;;;;;;;;;;5117881;28;20113;-81
2023/07/24 10:41:15;;;;;;;19.05;9.18;;;;;;;;;;5117420;28;20043;-82
2023/07/24 10:43:46;;;;;;;11.38;7.30;;;;;;;;;;5116375;28;20047;-83
2023/07/24 10:46:15;;;;;;;10.27;6.07;;;;;;;;;;5117675;28;20053;-81
2023/07/24 10:48:43;;;;;;;9.25;6.55;;;;;;;;;;5117232;28;20454;-80
2023/07/24 10:51:13;;;;;;;12.52;6.78;;;;;;;;;;5118094;27;20051;-85
2023/07/24 10:53:45;;;;;;;12.15;7.15;;;;;;;;;;5118029;28;20058;-81
2023/07/24 10:56:13;;;;;;;10.93;7.32;;;;;;;;;;5116172;28;20044;-82
2023/07/24 10:58:40;;;;;;;10.70;7.60;;;;;;;;;;5115868;28;20568;-81
2023/07/24 11:01:09;;;;;;;12.95;7.30;;;;;;;;;;5116371;28;20088;-80
2023/07/24 11:03:37;;;;;;;9.63;6.80;;;;;;;;;;5117685;28;20044;-82
2023/07/24 11:06:04;;;;;;;11.52;7.53;;;;;;;;;;5115626;28;20093;-80
2023/07/24 11:08:32;;;;;;;9.90;7.10;;;;;;;;;;5116321;28;20067;-82
2023/07/24 11:11:01;;;;;;;9.30;6.82;;;;;;;;;;5116999;28;20048;-81
2023/07/24 11:13:29;;;;;;;10.38;7.03;;;;;;;;;;5117086;28;20100;-79
2023/07/24 11:15:56;;;;;;;9.52;7.07;;;;;;;;;;5116762;28;20050;-81
2023/07/24 11:18:26;;;;;;;8.52;6.97;;;;;;;;;;5114302;28;20449;-80
2023/07/24 11:21:05;;;;;;;7.72;6.93;;;;;;;;;;5117012;28;20047;-80
2023/07/24 11:23:32;;;;;;;8.63;7.20;;;;;;;;;;5114607;28;20411;-81
2023/07/24 11:26:00;;;;;;;10.38;7.05;;;;;;;;;;5115743;28;20050;-80
2023/07/24 11:28:27;;;;;;;10.13;6.75;;;;;;;;;;5115589;28;20051;-79
2023/07/24 11:30:55;;;;;;;7.75;6.95;;;;;;;;;;5117270;28;20044;-83
2023/07/24 11:33:23;;;;;;;11.05;6.63;;;;;;;;;;5117564;28;20054;-81
2023/07/24 11:35:50;;;;;;;11.07;7.35;;;;;;;;;;5120414;28;20043;-82
2023/07/24 11:38:17;;;;;;;8.55;6.60;;;;;;;;;;5119363;28;20101;-81
2023/07/24 11:40:45;;;;;;;7.35;6.53;;;;;;;;;;5120936;28;20054;-80
2023/07/24 11:43:20;;;;;;;6.70;6.00;;;;;;;;;;5118666;28;20077;-83
2023/07/24 11:45:48;;;;;;;12.15;6.30;;;;;;;;;;5118815;28;20507;-80
2023/07/24 11:48:16;;;;;;;8.30;6.75;;;;;;;;;;5119674;28;20074;-81
2023/07/24 11:50:44;;;;;;;7.00;6.20;;;;;;;;;;5118192;28;20092;-81
2023/07/24 11:53:25;;;;;;;8.95;6.20;;;;;;;;;;5117675;28;20059;-81
2023/07/24 11:55:53;;;;;;;7.65;5.95;;;;;;;;;;5117574;28;20052;-81
2023/07/24 11:58:21;;;;;;;9.18;5.82;;;;;;;;;;5117142;28;20105;-81
2023/07/24 12:00:49;;;;;;;9.18;6.32;;;;;;;;;;5116675;28;20131;-81
2023/07/24 12:03:21;;;;;;;6.78;5.80;;;;;;;;;;5117626;28;20104;-81
2023/07/24 12:05:48;;;;;;;7.95;5.57;;;;;;;;;;5116967;28;20065;-84
2023/07/24 12:08:19;;;;;;;8.63;5.68;;;;;;;;;;5116261;28;20058;-82
2023/07/24 12:10:46;;;;;;;11.68;6.15;;;;;;;;;;5116553;28;20044;-83
2023/07/24 12:13:13;;;;;;;11.02;6.30;;;;;;;;;;5116099;28;20051;-80
2023/07/24 12:15:40;;;;;;;10.77;6.00;;;;;;;;;;5116102;28;20488;-79
2023/07/24 12:18:08;;;;;;;8.15;5.60;;;;;;;;;;5115726;28;20044;-81
2023/07/24 12:20:35;;;;;;;7.55;5.60;;;;;;;;;;5114991;28;20105;-80
2023/07/24 12:23:02;;;;;;;9.57;5.75;;;;;;;;;;5114351;28;20092;-80
2023/07/24 12:25:30;;;;;;;9.55;5.65;;;;;;;;;;5114661;28;20047;-80
2023/07/24 12:27:58;;;;;;;5.90;5.30;;;;;;;;;;5114243;28;20090;-81
2023/07/24 12:30:25;;;;;;;6.00;5.40;;;;;;;;;;5114474;28;20049;-80
2023/07/24 12:32:52;;;;;;;8.73;5.53;;;;;;;;;;5113898;28;20499;-82
2023/07/24 12:35:20;;;;;;;8.23;5.63;;;;;;;;;;5113878;28;20096;-81
2023/07/24 12:37:47;;;;;;;7.55;5.53;;;;;;;;;;5113635;28;20464;-80
2023/07/24 12:40:14;;;;;;;6.55;5.82;;;;;;;;;;5115583;28;20320;-80
2023/07/24 12:42:42;;;;;;;7.05;6.05;;;;;;;;;;5114535;28;20128;-81
2023/07/24 12:45:09;;;;;;;6.30;5.53;;;;;;;;;;5114594;28;20050;-80
2023/07/24 12:47:37;;;;;;;9.65;6.50;;;;;;;;;;5114281;28;20523;-79
2023/07/24 12:50:04;;;;;;;10.35;5.70;;;;;;;;;;5112720;28;20054;-79
2023/07/24 12:52:34;;;;;;;13.15;6.10;;;;;;;;;;5114622;27;20105;-80
2023/07/24 12:55:02;;;;;;;19.27;8.35;;;;;;;;;;5112693;28;20247;-81
2023/07/24 12:57:29;;;;;;;9.30;6.68;;;;;;;;;;5112294;28;20052;-79
2023/07/24 12:59:57;;;;;;;13.32;6.88;;;;;;;;;;5115030;28;20486;-81
2023/07/24 13:02:24;;;;;;;18.48;7.78;;;;;;;;;;5113806;28;20048;-83
2023/07/24 13:04:51;;;;;;;11.07;7.18;;;;;;;;;;5112807;28;20170;-81
2023/07/24 13:07:18;;;;;;;10.95;6.72;;;;;;;;;;5112646;28;20491;-81
2023/07/24 13:09:46;;;;;;;9.93;6.50;;;;;;;;;;5113081;28;20048;-79
2023/07/24 13:12:13;;;;;;;9.55;6.72;;;;;;;;;;5120102;28;20052;-82
2023/07/24 13:14:40;;;;;;;10.80;6.50;;;;;;;;;;5123281;28;20116;-84
2023/07/24 13:17:09;;;;;;;8.57;6.72;;;;;;;;;;5125495;27;20059;-83
2023/07/24 13:19:36;;;;;;;12.30;7.55;;;;;;;;;;5125932;28;20051;-82
2023/07/24 13:22:04;;;;;;;12.52;6.65;;;;;;;;;;5123337;28;20068;-84
2023/07/24 13:24:31;;;;;;;9.50;6.68;;;;;;;;;;5119431;28;20055;-81
2023/07/24 13:26:58;;;;;;;7.75;6.53;;;;;;;;;;5118988;28;20139;-81
2023/07/24 13:29:25;;;;;;;9.65;6.95;;;;;;;;;;5119901;28;20077;-80
2023/07/24 13:31:53;;;;;;;10.48;6.32;;;;;;;;;;5119705;28;20495;-82
2023/07/24 13:34:20;;;;;;;8.20;6.25;;;;;;;;;;5118489;28;20055;-81
2023/07/24 13:36:48;;;;;;;6.93;6.10;;;;;;;;;;5118627;28;20054;-81
2023/07/24 13:39:15;;;;;;;7.60;6.53;;;;;;;;;;5118041;28;20487;-81
2023/07/24 13:41:42;;;;;;;7.47;6.45;;;;;;;;;;5118515;28;20384;-80
2023/07/24 13:44:10;;;;;;;7.90;6.07;;;;;;;;;;5118661;28;20069;-81
2023/07/24 13:46:37;;;;;;;13.82;6.40;;;;;;;;;;5116804;28;20048;-81
2023/07/24 13:49:07;;;;;;;8.40;5.97;;;;;;;;;;5117201;28;20074;-80
2023/07/24 13:51:34;;;;;;;8.45;5.60;;;;;;;;;;5117103;28;20044;-81
2023/07/24 13:54:01;;;;;;;11.75;5.78;;;;;;;;;;5117493;28;20049;-80
2023/07/24 13:56:33;;;;;;;8.27;6.47;;;;;;;;;;5117977;28;20146;-82
2023/07/24 13:59:01;;;;;;;9.23;6.88;;;;;;;;;;5116056;28;20047;-80
2023/07/24 14:01:28;;;;;;;6.47;5.80;;;;;;;;;;5117763;28;20484;-81
2023/07/24 14:03:56;;;;;;;14.80;6.28;;;;;;;;;;5116770;28;20097;-81
2023/07/24 14:06:24;;;;;;;10.48;6.30;;;;;;;;;;5116415;28;20047;-79
2023/07/24 14:08:51;;;;;;;9.75;6.15;;;;;;;;;;5115843;28;20052;-81
2023/07/24 14:11:18;;;;;;;6.35;5.43;;;;;;;;;;5116392;28;20499;-83
2023/07/24 14:13:46;;;;;;;10.35;6.50;;;;;;;;;;5116587;28;20051;-80
2023/07/24 14:16:13;;;;;;;9.35;5.88;;;;;;;;;;5115887;28;20396;-79
2023/07/24 14:18:41;;;;;;;6.32;5.72;;;;;;;;;;5115353;28;20190;-82
2023/07/24 14:21:08;;;;;;;6.07;5.50;;;;;;;;;;5116899;28;20096;-81
2023/07/24 14:23:35;;;;;;;14.18;5.88;;;;;;;;;;5117352;28;20105;-81
2023/07/24 14:26:03;;;;;;;8.50;5.78;;;;;;;;;;5115231;28;20427;-82
2023/07/24 14:28:30;;;;;;;6.30;5.38;;;;;;;;;;5115778;28;20048;-81
2023/07/24 14:30:57;;;;;;;8.07;5.53;;;;;;;;;;5115365;28;20100;-80
2023/07/24 14:33:24;;;;;;;6.13;5.50;;;;;;;;;;5116111;28;20099;-82
2023/07/24 14:35:51;;;;;;;7.72;5.70;;;;;;;;;;5114432;28;20116;-81
2023/07/24 14:38:19;;;;;;;6.57;5.68;;;;;;;;;;5114530;28;20040;-81
2023/07/24 14:40:46;;;;;;;8.75;5.80;;;;;;;;;;5115026;28;20047;-79
2023/07/24 14:43:14;;;;;;;8.15;5.60;;;;;;;;;;5114431;28;20048;-81
2023/07/24 14:45:41;;;;;;;7.43;5.95;;;;;;;;;;5114761;28;20515;-78